This is the latest recevied weather packets stored in our database for station/object CA4LJZ-10. If no packets are shown the sender has not sent any weather packets the latest 10 day(s).
| Time | Temp. | Humidity | Pressure | Rain* | Wind** | Luminosity | Snow |
|---|---|---|---|---|---|---|---|
| 1787377192 | 19.44° C | 37% | 954.5 hPa | - | - | - | - |
| 1787376291 | 18.89° C | 36% | 954.8 hPa | - | - | - | - |
| 1787375390 | 19.44° C | 36% | 955 hPa | - | - | - | - |
| 1787374490 | 19.44° C | 36% | 955 hPa | - | - | - | - |
| 1787373589 | 20° C | 36% | 955 hPa | - | - | - | - |
| 1787372688 | 20° C | 37% | 955.2 hPa | - | - | - | - |
| 1787371787 | 20° C | 37% | 955.2 hPa | - | - | - | - |
| 1787370886 | 20.56° C | 35% | 955.4 hPa | - | - | - | - |
| 1787369985 | 21.11° C | 32% | 955.4 hPa | - | - | - | - |
| 1787369084 | 21.11° C | 34% | 955.4 hPa | - | - | - | - |
| 1787368183 | 20.56° C | 35% | 955.5 hPa | - | - | - | - |
| 1787367283 | 20.56° C | 34% | 955.7 hPa | - | - | - | - |
| 1787366382 | 21.11° C | 32% | 955.5 hPa | - | - | - | - |
| 1787365481 | 21.67° C | 31% | 955.4 hPa | - | - | - | - |
| 1787364580 | 21.11° C | 33% | 955.4 hPa | - | - | - | - |
| 1787363679 | 21.11° C | 33% | 955.5 hPa | - | - | - | - |
| 1787362778 | 21.11° C | 34% | 955.5 hPa | - | - | - | - |
| 1787361877 | 22.22° C | 34% | 955.4 hPa | - | - | - | - |
| 1787360976 | 22.22° C | 33% | 955.3 hPa | - | - | - | - |
| 1787360075 | 23.33° C | 31% | 955.3 hPa | - | - | - | - |
| 1787359174 | 23.33° C | 31% | 955.5 hPa | - | - | - | - |
| 1787358273 | 24.44° C | 29% | 955.5 hPa | - | - | - | - |
| 1787357392 | 23.89° C | 30% | 955.3 hPa | - | - | - | - |
* Rain since midnight (hover to see other rain measurements)
** Current wind speed in m/s (hover to see current wind gust speed)